Time;durP1;ratioP1;P1;durP2;ratioP2;P2;SDS_P1;SDS_P2;PMS_P1;PMS_P2;Temp;Humidity;BMP_temperature;BMP_pressure;BME280_temperature;BME280_humidity;BME280_pressure;Samples;Min_cycle;Max_cycle;Signal;HPM_P1;HPM_P2
2022/05/24 00:00:24;;;;;;;;;;;;;;;15.13;51.94;99377.61;52745;1271;1016674;-52
2022/05/24 00:03:06;;;;;;;;;;;;;;;15.13;52.10;99368.97;52697;1271;1016982;-52
2022/05/24 00:05:36;;;;;;;;;;;;;;;15.10;52.17;99361.85;52710;1271;1017313;-50
2022/05/24 00:08:07;;;;;;;;;;;;;;;15.11;52.39;99360.20;52833;1269;1016709;-54
2022/05/24 00:10:38;;;;;;;;;;;;;;;15.09;52.32;99354.30;52825;1271;1016327;-51
2022/05/24 00:13:08;;;;;;;;;;;;;;;15.08;52.34;99352.20;52773;1269;1015816;-55
2022/05/24 00:15:38;;;;;;;;;;;;;;;15.07;52.36;99355.50;52846;1269;1016319;-55
2022/05/24 00:18:10;;;;;;;;;;;;;;;15.06;52.59;99358.08;52843;1269;1016556;-53
2022/05/24 00:20:44;;;;;;;;;;;;;;;15.05;52.63;99355.84;52767;1269;1019925;-53
2022/05/24 00:23:15;;;;;;;;;;;;;;;15.04;52.58;99349.20;52756;1272;1016690;-51
2022/05/24 00:25:45;;;;;;;;;;;;;;;15.04;52.53;99340.76;52774;1271;1016374;-51
2022/05/24 00:28:16;;;;;;;;;;;;;;;15.04;52.81;99333.52;52699;1269;1016378;-51
2022/05/24 00:30:46;;;;;;;;;;;;;;;15.01;52.78;99332.16;52738;1269;1019267;-53
2022/05/24 00:33:16;;;;;;;;;;;;;;;15.00;52.84;99330.24;52811;1269;1016332;-53
2022/05/24 00:35:47;;;;;;;;;;;;;;;14.97;52.86;99327.07;52788;1269;1016579;-54
2022/05/24 00:38:21;;;;;;;;;;;;;;;14.97;53.02;99323.04;52771;1270;1016584;-50
2022/05/24 00:40:57;;;;;;;;;;;;;;;14.96;52.91;99326.02;52810;1269;1016472;-50
2022/05/24 00:43:29;;;;;;;;;;;;;;;14.95;52.90;99322.70;52697;1272;1016208;-52
2022/05/24 00:46:01;;;;;;;;;;;;;;;14.94;52.99;99330.29;52722;1270;1018800;-49
2022/05/24 00:48:32;;;;;;;;;;;;;;;14.90;53.17;99330.02;52779;1269;1018269;-49
2022/05/24 00:51:03;;;;;;;;;;;;;;;14.86;53.21;99317.77;52724;1269;1017444;-52
2022/05/24 00:53:34;;;;;;;;;;;;;;;14.85;53.05;99315.08;52750;1272;1016883;-54
2022/05/24 00:56:07;;;;;;;;;;;;;;;14.82;53.25;99308.05;52740;1271;1016557;-53
2022/05/24 00:58:39;;;;;;;;;;;;;;;14.82;53.21;99301.97;52849;1269;1016290;-50
2022/05/24 01:01:16;;;;;;;;;;;;;;;14.84;53.12;99290.50;52823;1269;1016513;-52
2022/05/24 01:03:46;;;;;;;;;;;;;;;14.85;53.26;99287.02;52694;1271;1015909;-51
2022/05/24 01:06:16;;;;;;;;;;;;;;;14.85;53.27;99284.88;52776;1268;1018334;-50
2022/05/24 01:08:48;;;;;;;;;;;;;;;14.84;53.21;99282.33;52743;1269;1016876;-49
2022/05/24 01:11:19;;;;;;;;;;;;;;;14.83;53.43;99277.09;52791;1268;1016097;-52
2022/05/24 01:13:50;;;;;;;;;;;;;;;14.81;53.51;99269.45;52797;1270;1020241;-52
2022/05/24 01:16:20;;;;;;;;;;;;;;;14.80;53.54;99266.19;52745;1268;1016269;-50
2022/05/24 01:18:50;;;;;;;;;;;;;;;14.78;53.50;99260.35;52769;1269;1016711;-51
2022/05/24 01:21:20;;;;;;;;;;;;;;;14.77;53.66;99251.84;52826;1268;1017936;-52
2022/05/24 01:23:55;;;;;;;;;;;;;;;14.77;53.65;99242.34;52780;1269;1015957;-49
2022/05/24 01:26:30;;;;;;;;;;;;;;;14.76;53.72;99237.52;52766;1270;1016442;-52
2022/05/24 01:29:01;;;;;;;;;;;;;;;14.76;53.70;99233.14;52796;1268;1016315;-51
2022/05/24 01:36:09;;;;;;;;;;;;;;;14.75;53.77;99233.73;52928;1269;1016090;-49
2022/05/24 01:37:12;;;;;;;;;;;;;;;14.72;53.91;99218.84;52740;1268;1016565;-52
2022/05/24 01:39:43;;;;;;;;;;;;;;;14.73;53.92;99215.86;52793;1269;1016449;-51
2022/05/24 01:42:14;;;;;;;;;;;;;;;14.73;54.03;99214.59;52809;1269;1017000;-52
2022/05/24 01:44:47;;;;;;;;;;;;;;;14.74;54.05;99210.44;52823;1268;1016584;-51
2022/05/24 01:47:19;;;;;;;;;;;;;;;14.75;54.13;99198.64;52803;1268;1017253;-50
2022/05/24 01:49:50;;;;;;;;;;;;;;;14.74;54.23;99190.48;52839;1270;1016040;-53
2022/05/24 01:52:23;;;;;;;;;;;;;;;14.72;54.30;99178.59;52851;1269;1016613;-54
2022/05/24 01:54:55;;;;;;;;;;;;;;;14.69;54.36;99177.91;52755;1269;1017150;-54
2022/05/24 01:57:27;;;;;;;;;;;;;;;14.68;54.49;99183.77;52724;1268;1017126;-49
2022/05/24 01:59:59;;;;;;;;;;;;;;;14.67;54.62;99195.58;52795;1268;1016685;-51
2022/05/24 02:02:29;;;;;;;;;;;;;;;14.63;55.58;99223.05;52767;1268;1016617;-51
2022/05/24 02:05:16;;;;;;;;;;;;;;;14.58;56.20;99244.36;52826;1269;1017541;-52
2022/05/24 02:07:47;;;;;;;;;;;;;;;14.55;56.31;99237.55;52901;1267;1016467;-63
2022/05/24 02:10:17;;;;;;;;;;;;;;;14.57;56.88;99238.50;52806;1268;1016015;-63
2022/05/24 02:12:49;;;;;;;;;;;;;;;14.58;56.94;99239.98;52783;1270;1019107;-62
2022/05/24 02:15:21;;;;;;;;;;;;;;;14.59;57.31;99237.15;52740;1271;1017176;-62
2022/05/24 02:17:55;;;;;;;;;;;;;;;14.59;57.36;99236.44;52840;1270;1016627;-63
2022/05/24 02:20:27;;;;;;;;;;;;;;;14.58;57.18;99227.06;52851;1268;1018862;-63
2022/05/24 02:22:57;;;;;;;;;;;;;;;14.57;57.16;99224.20;52835;1271;1016794;-63
2022/05/24 02:25:30;;;;;;;;;;;;;;;14.57;57.32;99221.39;52934;1270;1016804;-62
2022/05/24 02:28:02;;;;;;;;;;;;;;;14.57;57.58;99217.96;52835;1270;1016624;-62
2022/05/24 02:30:32;;;;;;;;;;;;;;;14.57;57.77;99214.40;52754;1270;1016660;-62
2022/05/24 02:33:03;;;;;;;;;;;;;;;14.55;57.82;99217.09;52920;1270;1016498;-63
2022/05/24 02:35:33;;;;;;;;;;;;;;;14.53;57.96;99218.54;52822;1269;1018762;-62
2022/05/24 02:38:03;;;;;;;;;;;;;;;14.53;58.19;99218.94;52847;1268;1016741;-63
2022/05/24 02:43:21;;;;;;;;;;;;;;;14.52;58.29;99218.61;50608;1269;6435787;-62
2022/05/24 02:45:51;;;;;;;;;;;;;;;14.51;58.46;99219.94;52941;1268;1016111;-62
2022/05/24 02:48:21;;;;;;;;;;;;;;;14.50;58.49;99220.10;52919;1268;1016186;-63
2022/05/24 02:50:51;;;;;;;;;;;;;;;14.48;58.75;99222.73;52852;1270;1016400;-63
2022/05/24 02:53:22;;;;;;;;;;;;;;;14.46;58.78;99220.56;52825;1269;1016749;-62
2022/05/24 02:55:52;;;;;;;;;;;;;;;14.44;58.85;99224.94;52821;1268;1016985;-63
2022/05/24 02:58:22;;;;;;;;;;;;;;;14.42;58.96;99224.70;52787;1268;1016748;-62
2022/05/24 03:00:52;;;;;;;;;;;;;;;14.39;58.81;99221.90;52789;1269;1016016;-63
2022/05/24 03:03:24;;;;;;;;;;;;;;;14.36;58.68;99215.04;52796;1270;1016415;-62
2022/05/24 03:05:54;;;;;;;;;;;;;;;14.36;58.78;99220.61;52874;1270;1016599;-63
2022/05/24 03:11:11;;;;;;;;;;;;;;;14.29;58.63;99210.38;52918;1268;1016128;-63
2022/05/24 03:16:29;;;;;;;;;;;;;;;14.23;58.84;99210.42;52827;1268;1018395;-62
2022/05/24 03:18:58;;;;;;;;;;;;;;;14.22;58.85;99212.01;52839;1268;1016685;-62
2022/05/24 03:21:29;;;;;;;;;;;;;;;14.22;58.91;99220.28;52818;1268;1016463;-62
2022/05/24 03:23:59;;;;;;;;;;;;;;;14.23;58.79;99215.48;52764;1268;1016543;-62
2022/05/24 03:26:30;;;;;;;;;;;;;;;14.23;58.91;99211.91;52736;1269;1016323;-62
2022/05/24 03:29:00;;;;;;;;;;;;;;;14.22;59.11;99208.70;52854;1268;1016555;-62
2022/05/24 03:31:31;;;;;;;;;;;;;;;14.22;59.04;99210.17;52918;1268;1016694;-62
2022/05/24 03:34:01;;;;;;;;;;;;;;;14.23;59.13;99205.73;52755;1268;1016407;-62
2022/05/24 03:36:31;;;;;;;;;;;;;;;14.22;59.38;99202.42;52695;1269;1016295;-63
2022/05/24 03:39:02;;;;;;;;;;;;;;;14.21;59.36;99200.09;52746;1268;1016384;-63
2022/05/24 03:41:32;;;;;;;;;;;;;;;14.23;59.31;99201.14;52742;1268;1016206;-62
2022/05/24 03:44:02;;;;;;;;;;;;;;;14.24;59.55;99201.38;52853;1268;1020215;-62
2022/05/24 03:46:33;;;;;;;;;;;;;;;14.24;59.52;99209.28;52870;1270;1015927;-62
2022/05/24 03:49:03;;;;;;;;;;;;;;;14.25;59.59;99201.36;52817;1268;1016301;-62
2022/05/24 03:51:33;;;;;;;;;;;;;;;14.26;59.52;99196.76;52910;1268;1016353;-63
2022/05/24 03:54:03;;;;;;;;;;;;;;;14.29;59.51;99175.41;52779;1269;1016446;-63
2022/05/24 03:56:32;;;;;;;;;;;;;;;14.29;59.68;99171.16;52799;1268;1016653;-62
2022/05/24 03:59:02;;;;;;;;;;;;;;;14.29;59.71;99177.15;52864;1268;1016693;-63
2022/05/24 04:01:32;;;;;;;;;;;;;;;14.29;59.80;99188.52;52861;1268;1016839;-63
2022/05/24 04:04:02;;;;;;;;;;;;;;;14.29;59.89;99200.02;52831;1268;1016687;-63
2022/05/24 04:06:32;;;;;;;;;;;;;;;14.30;60.01;99199.54;52853;1268;1016541;-63
2022/05/24 04:09:02;;;;;;;;;;;;;;;14.31;59.93;99200.29;52920;1268;1016502;-63
2022/05/24 04:11:34;;;;;;;;;;;;;;;14.35;60.31;99195.39;52769;1268;1016573;-64
2022/05/24 04:14:04;;;;;;;;;;;;;;;14.37;60.20;99194.70;52961;1268;1016569;-63
2022/05/24 04:16:34;;;;;;;;;;;;;;;14.41;60.13;99192.25;52843;1268;1016745;-62
2022/05/24 04:19:04;;;;;;;;;;;;;;;14.45;60.04;99199.77;53013;1268;1016176;-62
2022/05/24 04:21:34;;;;;;;;;;;;;;;14.50;60.14;99209.33;52887;1270;1019977;-63
2022/05/24 04:24:05;;;;;;;;;;;;;;;14.54;60.15;99209.38;52842;1268;1016619;-63
2022/05/24 04:26:35;;;;;;;;;;;;;;;14.58;60.14;99210.25;52829;1268;1016285;-62
2022/05/24 04:29:05;;;;;;;;;;;;;;;14.61;59.92;99214.86;52839;1268;1016108;-63
2022/05/24 04:31:35;;;;;;;;;;;;;;;14.63;59.94;99216.21;52909;1268;1020759;-63
2022/05/24 04:34:05;;;;;;;;;;;;;;;14.65;59.76;99219.59;52869;1269;1016584;-63
2022/05/24 04:36:35;;;;;;;;;;;;;;;14.68;59.81;99220.54;52883;1268;1016726;-63
2022/05/24 04:39:06;;;;;;;;;;;;;;;14.70;59.89;99217.14;52858;1268;1020381;-63
2022/05/24 04:44:23;;;;;;;;;;;;;;;14.71;59.80;99213.52;52859;1268;1016543;-64
2022/05/24 04:47:08;;;;;;;;;;;;;;;14.72;59.79;99211.08;52891;1269;1016388;-64
2022/05/24 04:49:39;;;;;;;;;;;;;;;14.73;59.87;99212.90;52786;1268;1016205;-64
2022/05/24 04:52:10;;;;;;;;;;;;;;;14.74;59.79;99215.60;52766;1270;1016191;-64
2022/05/24 04:54:40;;;;;;;;;;;;;;;14.74;59.66;99214.64;52864;1270;1016330;-65
2022/05/24 04:57:10;;;;;;;;;;;;;;;14.76;59.73;99213.89;52804;1268;1018794;-64
2022/05/24 04:59:40;;;;;;;;;;;;;;;14.79;59.63;99204.55;52800;1268;1016235;-64
2022/05/24 05:02:10;;;;;;;;;;;;;;;14.83;59.85;99206.23;52814;1268;1016246;-64
2022/05/24 05:04:40;;;;;;;;;;;;;;;14.86;59.64;99203.27;52946;1268;1016835;-63
2022/05/24 05:07:10;;;;;;;;;;;;;;;14.90;60.02;99198.96;54640;1268;1016607;-63
2022/05/24 05:09:40;;;;;;;;;;;;;;;14.94;59.65;99199.47;53566;1268;1015835;-63
2022/05/24 05:12:12;;;;;;;;;;;;;;;14.98;59.74;99206.15;53734;1268;1016030;-64
2022/05/24 05:14:42;;;;;;;;;;;;;;;15.01;59.65;99205.95;52957;1268;1016167;-64
2022/05/24 05:17:12;;;;;;;;;;;;;;;15.04;59.82;99216.67;52861;1268;1016710;-64
2022/05/24 05:19:42;;;;;;;;;;;;;;;15.08;59.66;99214.67;53424;1268;1016106;-64
2022/05/24 05:22:14;;;;;;;;;;;;;;;15.11;59.90;99213.10;52871;1268;1016492;-64
2022/05/24 05:24:44;;;;;;;;;;;;;;;15.14;59.71;99205.80;52892;1268;1016390;-64
2022/05/24 05:27:14;;;;;;;;;;;;;;;15.17;59.79;99208.00;52978;1268;1020178;-64
2022/05/24 05:32:31;;;;;;;;;;;;;;;15.22;59.78;99217.64;52748;1267;1016248;-64
2022/05/24 05:35:02;;;;;;;;;;;;;;;15.24;59.82;99219.99;52768;1269;1016533;-63
2022/05/24 05:37:32;;;;;;;;;;;;;;;15.27;59.86;99220.73;52891;1269;1017202;-64
2022/05/24 05:40:05;;;;;;;;;;;;;;;15.30;59.72;99213.35;52888;1268;1015926;-64
2022/05/24 05:42:36;;;;;;;;;;;;;;;15.33;59.80;99214.02;52803;1269;1016327;-64
2022/05/24 05:45:10;;;;;;;;;;;;;;;15.37;59.83;99216.86;52886;1269;1016364;-63
2022/05/24 05:47:40;;;;;;;;;;;;;;;15.41;59.71;99215.83;52904;1269;1016841;-64
2022/05/24 05:50:11;;;;;;;;;;;;;;;15.46;59.97;99218.08;52893;1269;1015836;-64
2022/05/24 05:52:41;;;;;;;;;;;;;;;15.51;59.98;99219.06;52785;1268;1016933;-63
2022/05/24 05:55:12;;;;;;;;;;;;;;;15.57;60.15;99220.85;52759;1270;1016604;-63
2022/05/24 05:57:42;;;;;;;;;;;;;;;15.66;60.32;99219.30;52839;1269;1020095;-63
2022/05/24 06:00:13;;;;;;;;;;;;;;;15.80;60.32;99217.02;52773;1270;1016570;-63
2022/05/24 06:02:43;;;;;;;;;;;;;;;15.97;60.29;99220.47;52871;1269;1018950;-64
2022/05/24 06:05:13;;;;;;;;;;;;;;;16.17;60.34;99216.05;52973;1268;1016421;-63
2022/05/24 06:07:43;;;;;;;;;;;;;;;16.38;60.33;99219.94;52858;1268;1016270;-64
2022/05/24 06:10:14;;;;;;;;;;;;;;;16.54;59.82;99219.95;52836;1272;1016588;-64
2022/05/24 06:12:44;;;;;;;;;;;;;;;16.70;59.72;99222.64;52933;1272;1016271;-64
2022/05/24 06:15:14;;;;;;;;;;;;;;;16.87;59.70;99222.00;52777;1268;1016057;-64
2022/05/24 06:17:45;;;;;;;;;;;;;;;16.99;59.23;99227.63;52815;1272;1016778;-64
2022/05/24 06:20:16;;;;;;;;;;;;;;;17.06;59.21;99229.89;52879;1268;1017363;-65
2022/05/24 06:22:46;;;;;;;;;;;;;;;17.12;59.00;99224.66;52872;1270;1015989;-64
2022/05/24 06:25:18;;;;;;;;;;;;;;;17.15;58.93;99223.41;52878;1268;1016589;-65
2022/05/24 06:27:50;;;;;;;;;;;;;;;17.20;58.93;99228.06;52894;1268;1016703;-65
2022/05/24 06:30:21;;;;;;;;;;;;;;;17.23;58.83;99227.68;52813;1268;1016366;-65
2022/05/24 06:32:51;;;;;;;;;;;;;;;17.24;58.85;99231.85;52772;1268;1016608;-65
2022/05/24 06:35:22;;;;;;;;;;;;;;;17.29;58.97;99230.10;52865;1269;1016309;-65
2022/05/24 06:37:53;;;;;;;;;;;;;;;17.38;58.94;99233.61;52860;1268;1016323;-65
2022/05/24 06:40:24;;;;;;;;;;;;;;;17.49;59.23;99231.92;52869;1268;1015986;-64
2022/05/24 06:42:54;;;;;;;;;;;;;;;17.65;59.20;99235.05;52825;1268;1016165;-64
2022/05/24 06:45:24;;;;;;;;;;;;;;;17.80;58.72;99232.52;52721;1268;1016525;-64
2022/05/24 06:47:56;;;;;;;;;;;;;;;17.86;58.44;99235.86;52817;1268;1016680;-66
2022/05/24 06:50:26;;;;;;;;;;;;;;;17.90;58.42;99239.95;52810;1268;1016996;-65
2022/05/24 06:52:56;;;;;;;;;;;;;;;17.95;58.41;99242.29;52842;1269;1016489;-65
2022/05/24 06:55:26;;;;;;;;;;;;;;;18.02;58.27;99244.27;52919;1268;1016041;-65
2022/05/24 06:57:56;;;;;;;;;;;;;;;18.10;58.14;99241.90;52774;1268;1016652;-65
2022/05/24 07:03:15;;;;;;;;;;;;;;;18.32;58.15;99249.06;52799;1268;1016028;-65
2022/05/24 07:05:46;;;;;;;;;;;;;;;18.48;57.99;99247.26;52778;1268;1015998;-65
2022/05/24 07:08:17;;;;;;;;;;;;;;;18.66;57.96;99249.16;52661;1272;1015884;-65
2022/05/24 07:10:47;;;;;;;;;;;;;;;18.84;57.96;99248.10;52681;1271;1016690;-65
2022/05/24 07:13:18;;;;;;;;;;;;;;;19.01;57.71;99248.95;52593;1271;1016564;-65
2022/05/24 07:15:49;;;;;;;;;;;;;;;19.19;57.67;99249.38;52748;1271;1016594;-66
2022/05/24 07:18:20;;;;;;;;;;;;;;;19.34;57.51;99245.77;52673;1271;1016625;-66
2022/05/24 07:20:51;;;;;;;;;;;;;;;19.50;57.33;99249.23;52779;1271;1016322;-66
2022/05/24 07:23:24;;;;;;;;;;;;;;;19.64;56.94;99247.62;52730;1270;1016366;-66
2022/05/24 07:25:55;;;;;;;;;;;;;;;19.77;56.76;99250.68;52814;1270;1016338;-66
2022/05/24 07:28:25;;;;;;;;;;;;;;;19.89;56.34;99249.69;52623;1269;1016732;-66
2022/05/24 07:30:55;;;;;;;;;;;;;;;20.02;56.51;99247.80;52676;1271;1016667;-66
2022/05/24 07:33:26;;;;;;;;;;;;;;;20.22;56.09;99251.01;52655;1271;1016566;-66
2022/05/24 07:35:56;;;;;;;;;;;;;;;20.31;55.73;99251.59;52699;1271;1016693;-66
2022/05/24 07:38:27;;;;;;;;;;;;;;;20.38;55.71;99252.07;52768;1271;1016431;-66
2022/05/24 07:46:34;;;;;;;;;;;;;;;20.62;55.07;99247.08;52862;1270;1016561;-66
2022/05/24 07:49:06;;;;;;;;;;;;;;;20.70;55.06;99244.98;52812;1271;1016954;-67
2022/05/24 07:51:41;;;;;;;;;;;;;;;20.83;54.90;99247.71;52695;1270;1015906;-67
2022/05/24 07:54:13;;;;;;;;;;;;;;;20.95;54.61;99244.34;52665;1272;1016686;-67
2022/05/24 07:56:45;;;;;;;;;;;;;;;21.06;54.39;99247.73;52767;1271;1016637;-67
2022/05/24 07:59:17;;;;;;;;;;;;;;;21.20;54.52;99257.09;52881;1271;1017082;-67
2022/05/24 08:01:47;;;;;;;;;;;;;;;21.37;54.21;99252.48;52936;1270;1016148;-67
2022/05/24 08:04:17;;;;;;;;;;;;;;;21.52;54.00;99247.98;52890;1271;1016380;-67
2022/05/24 08:06:48;;;;;;;;;;;;;;;21.64;53.58;99248.31;52807;1270;1016638;-67
2022/05/24 08:09:18;;;;;;;;;;;;;;;21.74;53.32;99250.59;52895;1271;1016377;-67
2022/05/24 08:11:48;;;;;;;;;;;;;;;21.80;53.36;99252.71;52848;1270;1016648;-67
2022/05/24 08:14:19;;;;;;;;;;;;;;;21.88;53.29;99254.81;52882;1271;1018874;-68
2022/05/24 08:16:50;;;;;;;;;;;;;;;21.92;52.93;99252.85;52802;1270;1016458;-68
2022/05/24 08:19:23;;;;;;;;;;;;;;;21.92;52.87;99251.72;52881;1271;1016495;-68
2022/05/24 08:21:55;;;;;;;;;;;;;;;21.95;52.94;99251.23;53004;1268;1016636;-68
2022/05/24 08:24:26;;;;;;;;;;;;;;;22.06;53.01;99252.76;52842;1269;1016406;-68
2022/05/24 08:26:58;;;;;;;;;;;;;;;22.23;52.94;99249.64;52959;1268;1016458;-68
2022/05/24 08:29:28;;;;;;;;;;;;;;;22.43;52.77;99250.48;52829;1271;1015813;-68
2022/05/24 08:31:58;;;;;;;;;;;;;;;22.58;52.42;99247.15;52844;1271;1016323;-67
2022/05/24 08:34:29;;;;;;;;;;;;;;;22.72;52.49;99251.18;52831;1268;1016269;-68
2022/05/24 08:37:00;;;;;;;;;;;;;;;22.90;52.15;99252.25;52759;1271;1016704;-68
2022/05/24 08:39:30;;;;;;;;;;;;;;;23.03;51.83;99257.91;52818;1271;1016384;-68
2022/05/24 08:42:05;;;;;;;;;;;;;;;23.15;51.64;99260.41;52870;1268;1016002;-67
2022/05/24 08:50:27;;;;;;;;;;;;;;;23.25;51.22;99259.39;52699;1271;1016250;-67
2022/05/24 08:53:00;;;;;;;;;;;;;;;23.26;51.00;99262.34;52770;1271;1016457;-68
2022/05/24 08:55:31;;;;;;;;;;;;;;;23.25;51.02;99264.22;52941;1268;1016557;-68
2022/05/24 08:58:02;;;;;;;;;;;;;;;23.25;51.03;99260.96;52708;1271;1019470;-68
2022/05/24 09:00:35;;;;;;;;;;;;;;;23.28;50.92;99260.88;52855;1271;1016390;-68
2022/05/24 09:03:06;;;;;;;;;;;;;;;23.31;50.94;99261.71;52707;1271;1019611;-68
2022/05/24 09:05:38;;;;;;;;;;;;;;;23.36;51.03;99258.25;52872;1271;1018290;-68
2022/05/24 09:08:16;;;;;;;;;;;;;;;23.39;50.66;99260.94;52743;1269;1017841;-68
2022/05/24 09:10:48;;;;;;;;;;;;;;;23.42;50.47;99261.14;52996;1260;1015907;-51
2022/05/24 09:13:29;;;;;;;;;;;;;;;23.42;50.15;99259.05;52901;1268;1017123;-56
2022/05/24 09:16:03;;;;;;;;;;;;;;;23.41;50.01;99252.91;53385;1268;1016384;-54
2022/05/24 09:18:38;;;;;;;;;;;;;;;23.43;50.20;99251.55;52754;1268;1016417;-55
2022/05/24 09:21:15;;;;;;;;;;;;;;;23.58;50.53;99248.16;53447;1268;1016864;-56
2022/05/24 09:23:46;;;;;;;;;;;;;;;23.70;49.97;99248.84;52826;1271;1016714;-55
2022/05/24 09:26:20;;;;;;;;;;;;;;;23.73;50.00;99252.55;52943;1268;1016969;-55
2022/05/24 09:28:51;;;;;;;;;;;;;;;23.79;49.76;99257.70;52727;1268;1016529;-56
2022/05/24 09:31:25;;;;;;;;;;;;;;;23.79;49.64;99256.69;54442;1268;1016214;-55
2022/05/24 09:33:57;;;;;;;;;;;;;;;23.79;49.33;99252.11;52877;1268;1017307;-55
2022/05/24 09:36:34;;;;;;;;;;;;;;;23.75;49.42;99252.40;52770;1268;1016779;-53
2022/05/24 09:39:06;;;;;;;;;;;;;;;23.86;49.95;99254.69;52644;1270;1016588;-52
2022/05/24 09:41:36;;;;;;;;;;;;;;;24.02;49.77;99254.52;52698;1268;1016541;-56
2022/05/24 09:44:07;;;;;;;;;;;;;;;24.15;49.68;99257.61;52670;1271;1016578;-55
2022/05/24 09:46:39;;;;;;;;;;;;;;;24.26;49.43;99258.59;52811;1268;1016117;-55
2022/05/24 09:49:19;;;;;;;;;;;;;;;24.32;49.15;99257.38;52750;1268;1016818;-57
2022/05/24 09:51:51;;;;;;;;;;;;;;;24.34;48.99;99256.54;52798;1268;1016753;-52
2022/05/24 09:54:22;;;;;;;;;;;;;;;24.42;49.09;99258.27;52679;1270;1016869;-51
2022/05/24 09:57:04;;;;;;;;;;;;;;;24.50;48.91;99260.75;52701;1268;1016168;-55
2022/05/24 09:59:34;;;;;;;;;;;;;;;24.60;48.93;99264.30;52811;1268;1016449;-53
2022/05/24 10:02:22;;;;;;;;;;;;;;;24.65;48.46;99266.59;52702;1268;1016401;-56
2022/05/24 10:04:52;;;;;;;;;;;;;;;24.68;48.61;99270.38;52745;1268;1016681;-55
2022/05/24 10:07:27;;;;;;;;;;;;;;;24.73;48.12;99269.23;52770;1268;1016712;-54
2022/05/24 10:10:03;;;;;;;;;;;;;;;24.71;48.12;99270.71;52763;1268;1016278;-54
2022/05/24 10:12:47;;;;;;;;;;;;;;;24.66;47.95;99276.23;52729;1268;1016243;-55
2022/05/24 10:15:22;;;;;;;;;;;;;;;24.53;47.50;99281.06;52697;1268;1016285;-54
2022/05/24 10:18:09;;;;;;;;;;;;;;;24.46;47.74;99282.14;52671;1271;1016286;-55
2022/05/24 10:20:47;;;;;;;;;;;;;;;24.39;47.82;99285.14;52878;1268;1018385;-54
2022/05/24 10:23:26;;;;;;;;;;;;;;;24.40;47.86;99287.63;52838;1268;1017319;-54
2022/05/24 10:26:00;;;;;;;;;;;;;;;24.45;47.81;99289.31;52734;1271;1016833;-52
2022/05/24 10:28:35;;;;;;;;;;;;;;;24.47;47.68;99287.30;52825;1268;1016490;-54
2022/05/24 10:31:09;;;;;;;;;;;;;;;24.52;47.89;99289.38;52701;1268;1019152;-53
2022/05/24 10:39:47;;;;;;;;;;;;;;;24.54;47.75;99288.14;52560;1274;1017973;-55
2022/05/24 10:42:23;;;;;;;;;;;;;;;24.51;47.58;99291.15;52479;1274;1018918;-54
2022/05/24 10:44:57;;;;;;;;;;;;;;;24.50;47.60;99288.42;52650;1274;1018573;-55
2022/05/24 10:47:29;;;;;;;;;;;;;;;24.52;47.73;99284.99;52560;1274;1016681;-54
2022/05/24 10:50:02;;;;;;;;;;;;;;;24.54;47.39;99287.16;52515;1273;1016311;-55
2022/05/24 10:52:36;;;;;;;;;;;;;;;24.59;47.75;99289.42;52612;1274;1016688;-56
2022/05/24 10:55:09;;;;;;;;;;;;;;;24.68;47.72;99293.02;52527;1274;1016277;-52
2022/05/24 10:57:41;;;;;;;;;;;;;;;24.75;47.46;99292.36;52575;1274;1016905;-54
2022/05/24 11:00:14;;;;;;;;;;;;;;;24.86;47.51;99291.13;52569;1274;1016623;-56
2022/05/24 11:02:46;;;;;;;;;;;;;;;24.97;46.97;99291.83;52635;1274;1016162;-54
2022/05/24 11:05:19;;;;;;;;;;;;;;;24.98;46.93;99288.45;52481;1273;1016327;-52
2022/05/24 11:07:51;;;;;;;;;;;;;;;25.03;47.02;99287.40;52623;1274;1016626;-55
2022/05/24 11:10:26;;;;;;;;;;;;;;;25.12;47.06;99287.45;52798;1269;1015787;-55
2022/05/24 11:12:58;;;;;;;;;;;;;;;25.13;46.81;99290.99;52812;1268;1016712;-55
2022/05/24 11:15:33;;;;;;;;;;;;;;;25.09;46.57;99290.42;52722;1268;1016559;-52
2022/05/24 11:18:04;;;;;;;;;;;;;;;25.05;46.52;99290.50;52686;1271;1016677;-54
2022/05/24 11:20:37;;;;;;;;;;;;;;;25.01;46.29;99291.25;52740;1268;1016479;-51
2022/05/24 11:23:14;;;;;;;;;;;;;;;24.90;46.23;99292.27;52875;1267;1016927;-56
2022/05/24 11:25:49;;;;;;;;;;;;;;;24.79;46.43;99291.50;52646;1271;1016710;-55
2022/05/24 11:28:21;;;;;;;;;;;;;;;24.71;46.54;99293.70;52755;1267;1016050;-53
2022/05/24 11:30:52;;;;;;;;;;;;;;;24.73;46.73;99294.61;52753;1271;1018182;-55
2022/05/24 11:33:31;;;;;;;;;;;;;;;24.75;46.88;99295.15;52770;1267;1016713;-52
2022/05/24 11:36:21;;;;;;;;;;;;;;;24.74;46.65;99294.14;52764;1268;1016096;-55
2022/05/24 11:38:51;;;;;;;;;;;;;;;24.78;46.87;99292.38;52909;1269;1016213;-53
2022/05/24 11:41:30;;;;;;;;;;;;;;;24.75;46.74;99294.08;52831;1268;1016282;-54
2022/05/24 11:44:08;;;;;;;;;;;;;;;24.79;47.04;99290.38;52841;1268;1016504;-55
2022/05/24 11:46:41;;;;;;;;;;;;;;;24.80;46.84;99286.29;52698;1268;1017404;-53
2022/05/24 11:49:14;;;;;;;;;;;;;;;24.81;46.94;99290.88;52755;1268;1016131;-56
2022/05/24 11:51:45;;;;;;;;;;;;;;;24.84;46.90;99287.63;52779;1268;1016430;-55
2022/05/24 11:54:32;;;;;;;;;;;;;;;24.96;47.27;99294.43;52776;1267;1017341;-51
2022/05/24 11:57:17;;;;;;;;;;;;;;;25.11;46.93;99288.95;52643;1268;1016045;-53
2022/05/24 11:59:52;;;;;;;;;;;;;;;25.25;46.67;99283.15;52750;1268;1016002;-55
2022/05/24 12:08:27;;;;;;;;;;;;;;;25.49;46.48;99282.79;52756;1268;1017443;-55
2022/05/24 12:11:10;;;;;;;;;;;;;;;25.50;46.23;99285.44;52759;1268;1016456;-55
2022/05/24 12:13:55;;;;;;;;;;;;;;;25.50;46.33;99284.86;52787;1268;1016290;-54
2022/05/24 12:16:43;;;;;;;;;;;;;;;25.52;46.13;99283.59;52732;1268;1018442;-53
2022/05/24 12:19:33;;;;;;;;;;;;;;;25.51;45.90;99283.66;52831;1268;1016406;-55
2022/05/24 12:22:06;;;;;;;;;;;;;;;25.47;45.67;99284.92;52767;1267;1016655;-53
2022/05/24 12:24:52;;;;;;;;;;;;;;;25.45;45.94;99289.51;52974;1268;1016426;-55
2022/05/24 12:27:26;;;;;;;;;;;;;;;25.43;45.79;99283.92;52781;1268;1016189;-55
2022/05/24 12:29:58;;;;;;;;;;;;;;;25.37;45.91;99286.89;52760;1268;1016579;-56
2022/05/24 12:32:31;;;;;;;;;;;;;;;25.29;45.69;99289.61;52866;1268;1016542;-56
2022/05/24 12:35:07;;;;;;;;;;;;;;;25.23;45.79;99289.17;52739;1268;1019146;-54
2022/05/24 12:37:38;;;;;;;;;;;;;;;25.17;45.45;99294.40;52814;1268;1016490;-55
2022/05/24 12:40:14;;;;;;;;;;;;;;;25.07;45.48;99294.28;52775;1268;1016493;-55
2022/05/24 12:42:48;;;;;;;;;;;;;;;25.00;45.44;99290.70;52847;1267;1016084;-51
2022/05/24 12:45:23;;;;;;;;;;;;;;;24.96;45.46;99288.88;52840;1268;1016069;-56
2022/05/24 12:47:54;;;;;;;;;;;;;;;24.92;45.67;99289.00;52743;1268;1015929;-53
2022/05/24 12:50:27;;;;;;;;;;;;;;;24.88;45.55;99284.91;52806;1268;1016631;-56
2022/05/24 12:53:02;;;;;;;;;;;;;;;24.84;45.83;99282.27;52925;1267;1017165;-55
2022/05/24 12:58:30;;;;;;;;;;;;;;;24.90;46.05;99275.32;52738;1268;1015751;-55
2022/05/24 13:01:20;;;;;;;;;;;;;;;25.00;45.88;99271.16;52671;1268;1016572;-55
2022/05/24 13:03:56;;;;;;;;;;;;;;;25.10;45.57;99267.50;52703;1268;1017026;-55
2022/05/24 13:06:27;;;;;;;;;;;;;;;25.21;45.35;99268.42;52720;1267;1016247;-55
2022/05/24 13:09:11;;;;;;;;;;;;;;;25.33;45.49;99266.73;52844;1267;1016567;-56
2022/05/24 13:11:42;;;;;;;;;;;;;;;25.46;44.78;99266.41;52801;1268;1016606;-54
2022/05/24 13:14:16;;;;;;;;;;;;;;;25.60;44.68;99265.57;52697;1268;1017004;-56
2022/05/24 13:16:46;;;;;;;;;;;;;;;25.69;44.34;99263.61;52743;1268;1016570;-55
2022/05/24 13:19:16;;;;;;;;;;;;;;;25.70;44.35;99266.70;52746;1268;1016533;-56
2022/05/24 13:21:52;;;;;;;;;;;;;;;25.72;44.10;99261.62;52711;1268;1016428;-56
2022/05/24 13:24:22;;;;;;;;;;;;;;;25.73;44.10;99261.61;52732;1268;1016369;-55
2022/05/24 13:27:03;;;;;;;;;;;;;;;25.78;43.96;99264.23;52741;1268;1016572;-54
2022/05/24 13:33:33;;;;;;;;;;;;;;;25.86;43.99;99271.63;52729;1268;1016535;-55
2022/05/24 13:35:12;;;;;;;;;;;;;;;25.91;44.16;99271.45;52857;1268;1016694;-55
2022/05/24 13:37:52;;;;;;;;;;;;;;;25.95;44.26;99277.73;52830;1268;1016742;-55
2022/05/24 13:40:35;;;;;;;;;;;;;;;26.00;43.93;99280.52;52781;1268;1017155;-52
2022/05/24 13:43:05;;;;;;;;;;;;;;;25.99;43.45;99278.83;52739;1268;1016143;-51